sensor_id;sensor_type;location;lat;lon;timestamp;pressure;altitude;pressure_sealevel;temperature;humidity
20079;BME280;10199;48.850;8.924;2024-01-27T00:00:57;98547.03;;;-0.40;86.83
20079;BME280;10199;48.850;8.924;2024-01-27T00:03:25;98878.16;;;1.52;85.79
20079;BME280;10199;48.850;8.924;2024-01-27T00:05:53;98528.75;;;-0.52;86.27
20079;BME280;10199;48.850;8.924;2024-01-27T00:08:23;98918.16;;;1.94;86.42
20079;BME280;10199;48.850;8.924;2024-01-27T00:10:51;98261.28;;;-1.98;85.50
20079;BME280;10199;48.850;8.924;2024-01-27T00:13:19;98489.41;;;-1.20;86.33
20079;BME280;10199;48.850;8.924;2024-01-27T00:15:47;98928.50;;;1.95;85.99
20079;BME280;10199;48.850;8.924;2024-01-27T00:18:15;98939.78;;;1.96;85.78
20079;BME280;10199;48.850;8.924;2024-01-27T00:20:43;98941.47;;;1.97;86.79
20079;BME280;10199;48.850;8.924;2024-01-27T00:23:12;98860.28;;;1.46;85.90
20079;BME280;10199;48.850;8.924;2024-01-27T00:25:41;98947.44;;;1.84;86.70
20079;BME280;10199;48.850;8.924;2024-01-27T00:28:09;98288.13;;;-2.29;85.95
20079;BME280;10199;48.850;8.924;2024-01-27T00:30:38;98669.25;;;-0.11;87.11
20079;BME280;10199;48.850;8.924;2024-01-27T00:33:06;98325.13;;;-2.27;86.30
20079;BME280;10199;48.850;8.924;2024-01-27T00:35:34;98951.06;;;1.68;87.44
20079;BME280;10199;48.850;8.924;2024-01-27T00:38:03;98355.22;;;-2.40;87.29
20079;BME280;10199;48.850;8.924;2024-01-27T00:40:31;98943.34;;;1.80;87.18
20079;BME280;10199;48.850;8.924;2024-01-27T00:43:02;98618.13;;;-0.71;87.17
20079;BME280;10199;48.850;8.924;2024-01-27T00:45:30;98946.59;;;1.55;88.08
20079;BME280;10199;48.850;8.924;2024-01-27T00:47:58;98738.47;;;0.21;87.66
20079;BME280;10199;48.850;8.924;2024-01-27T00:50:27;98696.19;;;-0.42;87.25
20079;BME280;10199;48.850;8.924;2024-01-27T00:52:57;98803.22;;;0.70;87.32
20079;BME280;10199;48.850;8.924;2024-01-27T00:55:25;98956.84;;;1.58;87.62
20079;BME280;10199;48.850;8.924;2024-01-27T00:57:53;98939.69;;;1.26;88.73
20079;BME280;10199;48.850;8.924;2024-01-27T01:00:23;98643.28;;;-0.41;88.77
20079;BME280;10199;48.850;8.924;2024-01-27T01:02:51;98845.72;;;0.71;88.65
20079;BME280;10199;48.850;8.924;2024-01-27T01:05:19;98954.31;;;1.28;89.59
20079;BME280;10199;48.850;8.924;2024-01-27T01:07:47;98984.91;;;1.25;89.02
20079;BME280;10199;48.850;8.924;2024-01-27T01:10:16;98478.28;;;-1.84;88.45
20079;BME280;10199;48.850;8.924;2024-01-27T01:12:44;98738.09;;;-0.03;90.02
20079;BME280;10199;48.850;8.924;2024-01-27T01:15:12;98863.75;;;0.74;88.94
20079;BME280;10199;48.850;8.924;2024-01-27T01:17:42;98666.53;;;-0.54;87.80
20079;BME280;10199;48.850;8.924;2024-01-27T01:20:11;98769.59;;;0.23;88.48
20079;BME280;10199;48.850;8.924;2024-01-27T01:22:39;98597.34;;;-1.16;89.34
20079;BME280;10199;48.850;8.924;2024-01-27T01:25:07;98470.81;;;-2.06;89.13
20079;BME280;10199;48.850;8.924;2024-01-27T01:27:35;98733.81;;;-0.04;89.17
20079;BME280;10199;48.850;8.924;2024-01-27T01:30:04;98957.09;;;1.40;88.19
20079;BME280;10199;48.850;8.924;2024-01-27T01:32:33;98583.41;;;-0.84;87.70
20079;BME280;10199;48.850;8.924;2024-01-27T01:35:03;98476.78;;;-1.56;88.50
20079;BME280;10199;48.850;8.924;2024-01-27T01:37:31;98978.69;;;1.27;88.90
20079;BME280;10199;48.850;8.924;2024-01-27T01:39:59;98978.69;;;1.27;89.22
20079;BME280;10199;48.850;8.924;2024-01-27T01:42:27;98780.38;;;0.01;88.84
20079;BME280;10199;48.850;8.924;2024-01-27T01:44:59;98425.19;;;-2.90;87.85
20079;BME280;10199;48.850;8.924;2024-01-27T01:47:27;98423.25;;;-2.36;88.09
20079;BME280;10199;48.850;8.924;2024-01-27T01:49:56;99057.44;;;1.33;88.94
20079;BME280;10199;48.850;8.924;2024-01-27T01:52:26;98488.16;;;-1.59;87.54
20079;BME280;10199;48.850;8.924;2024-01-27T01:54:56;98538.19;;;-1.57;87.22
20079;BME280;10199;48.850;8.924;2024-01-27T01:57:25;98986.06;;;1.35;87.82
20079;BME280;10199;48.850;8.924;2024-01-27T01:59:53;98783.88;;;0.16;87.50
20079;BME280;10199;48.850;8.924;2024-01-27T02:02:21;99064.47;;;1.16;87.98
20079;BME280;10199;48.850;8.924;2024-01-27T02:04:49;98482.00;;;-2.37;87.27
20079;BME280;10199;48.850;8.924;2024-01-27T02:07:18;98690.28;;;-0.60;87.82
20079;BME280;10199;48.850;8.924;2024-01-27T02:09:48;98752.09;;;-0.35;87.64
20079;BME280;10199;48.850;8.924;2024-01-27T02:12:16;98949.34;;;0.80;87.86
20079;BME280;10199;48.850;8.924;2024-01-27T02:14:44;98794.09;;;-0.58;88.03
20079;BME280;10199;48.850;8.924;2024-01-27T02:17:12;98996.22;;;0.80;88.60
20079;BME280;10199;48.850;8.924;2024-01-27T02:19:41;98730.94;;;-1.72;90.55
20079;BME280;10199;48.850;8.924;2024-01-27T02:22:09;98824.03;;;-1.50;90.73
20079;BME280;10199;48.850;8.924;2024-01-27T02:24:39;98464.47;;;-3.51;90.21
20079;BME280;10199;48.850;8.924;2024-01-27T02:27:07;98296.66;;;-4.43;90.36
20079;BME280;10199;48.850;8.924;2024-01-27T02:29:36;99020.44;;;0.35;90.85
20079;BME280;10199;48.850;8.924;2024-01-27T02:32:05;98878.84;;;-0.89;90.22
20079;BME280;10199;48.850;8.924;2024-01-27T02:34:34;98726.25;;;-1.83;91.11
20079;BME280;10199;48.850;8.924;2024-01-27T02:37:02;98812.97;;;-1.54;92.08
20079;BME280;10199;48.850;8.924;2024-01-27T02:39:32;98232.69;;;-5.48;91.73
20079;BME280;10199;48.850;8.924;2024-01-27T02:42:02;98240.94;;;-5.02;92.58
20079;BME280;10199;48.850;8.924;2024-01-27T02:44:31;98803.69;;;-1.58;92.52
20079;BME280;10199;48.850;8.924;2024-01-27T02:46:59;98576.13;;;-3.24;92.47
20079;BME280;10199;48.850;8.924;2024-01-27T02:49:28;98716.56;;;-2.48;93.51
20079;BME280;10199;48.850;8.924;2024-01-27T02:51:58;98535.31;;;-3.36;93.63
20079;BME280;10199;48.850;8.924;2024-01-27T02:54:29;98714.16;;;-2.00;92.97
20079;BME280;10199;48.850;8.924;2024-01-27T02:56:58;98573.91;;;-3.14;92.62
20079;BME280;10199;48.850;8.924;2024-01-27T02:59:28;98181.84;;;-5.63;92.90
20079;BME280;10199;48.850;8.924;2024-01-27T03:01:59;98265.22;;;-5.06;92.45
20079;BME280;10199;48.850;8.924;2024-01-27T03:04:28;99054.78;;;-0.08;92.44
20079;BME280;10199;48.850;8.924;2024-01-27T03:06:59;98319.13;;;-4.45;91.49
20079;BME280;10199;48.850;8.924;2024-01-27T03:09:28;98303.41;;;-4.77;91.73
20079;BME280;10199;48.850;8.924;2024-01-27T03:11:56;98573.41;;;-3.77;92.75
20079;BME280;10199;48.850;8.924;2024-01-27T03:14:25;98202.69;;;-5.30;92.34
20079;BME280;10199;48.850;8.924;2024-01-27T03:16:55;98479.91;;;-3.86;93.19
20079;BME280;10199;48.850;8.924;2024-01-27T03:19:23;99163.69;;;-0.19;93.85
20079;BME280;10199;48.850;8.924;2024-01-27T03:21:52;98868.81;;;-1.30;93.68
20079;BME280;10199;48.850;8.924;2024-01-27T03:24:20;98832.16;;;-2.10;93.81
20079;BME280;10199;48.850;8.924;2024-01-27T03:26:49;98162.63;;;-5.56;93.78
20079;BME280;10199;48.850;8.924;2024-01-27T03:29:17;98358.88;;;-4.12;93.58
20079;BME280;10199;48.850;8.924;2024-01-27T03:31:45;98929.31;;;-0.60;93.98
20079;BME280;10199;48.850;8.924;2024-01-27T03:34:15;98241.72;;;-5.00;93.13
20079;BME280;10199;48.850;8.924;2024-01-27T03:36:47;99209.75;;;0.14;94.16
20079;BME280;10199;48.850;8.924;2024-01-27T03:39:16;98969.81;;;-1.25;93.30
20079;BME280;10199;48.850;8.924;2024-01-27T03:41:44;99212.25;;;-0.02;94.37
20079;BME280;10199;48.850;8.924;2024-01-27T03:44:12;98313.38;;;-4.88;93.66
20079;BME280;10199;48.850;8.924;2024-01-27T03:46:41;98963.94;;;-0.94;94.19
20079;BME280;10199;48.850;8.924;2024-01-27T03:49:09;98179.91;;;-5.58;94.00
20079;BME280;10199;48.850;8.924;2024-01-27T03:51:40;98895.84;;;-1.34;93.88
20079;BME280;10199;48.850;8.924;2024-01-27T03:54:08;98470.81;;;-3.75;93.67
20079;BME280;10199;48.850;8.924;2024-01-27T03:56:36;99077.34;;;-0.08;93.86
20079;BME280;10199;48.850;8.924;2024-01-27T03:59:05;99102.66;;;-0.12;93.00
20079;BME280;10199;48.850;8.924;2024-01-27T04:01:36;98883.94;;;-1.20;93.25
20079;BME280;10199;48.850;8.924;2024-01-27T04:04:04;98767.97;;;-2.05;92.92
20079;BME280;10199;48.850;8.924;2024-01-27T04:06:36;98869.13;;;-1.53;94.11
20079;BME280;10199;48.850;8.924;2024-01-27T04:09:09;98698.53;;;-2.69;94.16
20079;BME280;10199;48.850;8.924;2024-01-27T04:11:40;99080.22;;;-0.47;94.80
20079;BME280;10199;48.850;8.924;2024-01-27T04:14:11;98286.44;;;-5.59;93.48
20079;BME280;10199;48.850;8.924;2024-01-27T04:16:39;98748.94;;;-2.57;94.37
20079;BME280;10199;48.850;8.924;2024-01-27T04:19:11;98571.94;;;-3.27;94.57
20079;BME280;10199;48.850;8.924;2024-01-27T04:21:40;98422.81;;;-4.36;93.41
20079;BME280;10199;48.850;8.924;2024-01-27T04:24:12;98226.91;;;-5.53;93.30
20079;BME280;10199;48.850;8.924;2024-01-27T04:26:40;98298.31;;;-5.36;93.77
20079;BME280;10199;48.850;8.924;2024-01-27T04:29:09;98287.69;;;-6.08;93.53
20079;BME280;10199;48.850;8.924;2024-01-27T04:31:42;98729.38;;;-3.19;95.06
20079;BME280;10199;48.850;8.924;2024-01-27T04:34:11;98319.31;;;-6.05;95.46
20079;BME280;10199;48.850;8.924;2024-01-27T04:36:39;98326.00;;;-5.21;94.02
20079;BME280;10199;48.850;8.924;2024-01-27T04:39:08;98480.13;;;-4.67;93.48
20079;BME280;10199;48.850;8.924;2024-01-27T04:41:42;98683.56;;;-4.14;93.85
20079;BME280;10199;48.850;8.924;2024-01-27T04:44:11;98548.72;;;-4.61;94.36
20079;BME280;10199;48.850;8.924;2024-01-27T04:46:40;98277.81;;;-5.97;93.77
20079;BME280;10199;48.850;8.924;2024-01-27T04:49:09;99107.94;;;-1.18;94.62
20079;BME280;10199;48.850;8.924;2024-01-27T04:51:38;99056.84;;;-1.18;95.25
20079;BME280;10199;48.850;8.924;2024-01-27T04:54:08;98300.31;;;-5.82;94.52
20079;BME280;10199;48.850;8.924;2024-01-27T04:56:37;98308.22;;;-6.07;94.87
20079;BME280;10199;48.850;8.924;2024-01-27T04:59:07;98364.13;;;-5.68;94.86
20079;BME280;10199;48.850;8.924;2024-01-27T05:01:36;98702.16;;;-3.46;94.97
20079;BME280;10199;48.850;8.924;2024-01-27T05:04:10;98368.31;;;-5.66;94.45
20079;BME280;10199;48.850;8.924;2024-01-27T05:06:46;98292.47;;;-6.63;94.89
20079;BME280;10199;48.850;8.924;2024-01-27T05:09:15;98199.31;;;-6.50;95.27
20079;BME280;10199;48.850;8.924;2024-01-27T05:11:47;98506.84;;;-4.68;94.26
20079;BME280;10199;48.850;8.924;2024-01-27T05:14:21;98307.28;;;-6.04;94.84
20079;BME280;10199;48.850;8.924;2024-01-27T05:16:57;99236.06;;;-0.82;94.97
20079;BME280;10199;48.850;8.924;2024-01-27T05:19:28;99114.41;;;-0.91;94.55
20079;BME280;10199;48.850;8.924;2024-01-27T05:22:01;98495.00;;;-5.13;94.44
20079;BME280;10199;48.850;8.924;2024-01-27T05:24:33;98244.38;;;-6.19;95.00
20079;BME280;10199;48.850;8.924;2024-01-27T05:27:03;99120.66;;;-0.95;95.65
20079;BME280;10199;48.850;8.924;2024-01-27T05:29:36;98595.47;;;-4.08;95.36
20079;BME280;10199;48.850;8.924;2024-01-27T05:32:06;98379.19;;;-5.80;94.94
20079;BME280;10199;48.850;8.924;2024-01-27T05:34:36;98347.72;;;-6.08;94.76
20079;BME280;10199;48.850;8.924;2024-01-27T05:37:05;98569.16;;;-4.77;94.26
20079;BME280;10199;48.850;8.924;2024-01-27T05:39:34;99028.09;;;-2.06;95.55
20079;BME280;10199;48.850;8.924;2024-01-27T05:42:06;98322.41;;;-5.97;94.80
20079;BME280;10199;48.850;8.924;2024-01-27T05:44:36;98496.63;;;-5.32;95.26
20079;BME280;10199;48.850;8.924;2024-01-27T05:47:06;98173.22;;;-7.26;95.29
20079;BME280;10199;48.850;8.924;2024-01-27T05:49:37;98611.47;;;-4.40;96.44
20079;BME280;10199;48.850;8.924;2024-01-27T05:52:07;99193.53;;;-1.17;96.39
20079;BME280;10199;48.850;8.924;2024-01-27T05:54:39;99103.44;;;-1.15;96.49
20079;BME280;10199;48.850;8.924;2024-01-27T05:57:12;98283.53;;;-6.33;95.94
20079;BME280;10199;48.850;8.924;2024-01-27T05:59:43;98294.34;;;-6.25;96.23
20079;BME280;10199;48.850;8.924;2024-01-27T06:02:12;98232.56;;;-7.11;96.84
20079;BME280;10199;48.850;8.924;2024-01-27T06:04:42;98359.66;;;-6.27;96.61
20079;BME280;10199;48.850;8.924;2024-01-27T06:07:14;98339.97;;;-6.72;95.68
20079;BME280;10199;48.850;8.924;2024-01-27T06:09:44;98548.06;;;-5.51;96.58
20079;BME280;10199;48.850;8.924;2024-01-27T06:12:13;98295.84;;;-6.19;95.88
20079;BME280;10199;48.850;8.924;2024-01-27T06:14:46;98343.53;;;-6.76;95.79
20079;BME280;10199;48.850;8.924;2024-01-27T06:17:18;98254.41;;;-6.99;95.25
20079;BME280;10199;48.850;8.924;2024-01-27T06:19:46;98375.09;;;-6.27;95.62
20079;BME280;10199;48.850;8.924;2024-01-27T06:22:15;98321.38;;;-6.57;95.54
20079;BME280;10199;48.850;8.924;2024-01-27T06:24:45;98252.31;;;-6.46;95.86
20079;BME280;10199;48.850;8.924;2024-01-27T06:27:14;98407.06;;;-6.11;96.34
20079;BME280;10199;48.850;8.924;2024-01-27T06:29:45;98305.09;;;-6.57;95.88
20079;BME280;10199;48.850;8.924;2024-01-27T06:32:13;98740.25;;;-3.70;95.46
20079;BME280;10199;48.850;8.924;2024-01-27T06:34:42;98786.47;;;-3.42;95.10
20079;BME280;10199;48.850;8.924;2024-01-27T06:37:11;99221.94;;;-1.33;96.04
20079;BME280;10199;48.850;8.924;2024-01-27T06:39:40;98383.56;;;-5.82;95.92
20079;BME280;10199;48.850;8.924;2024-01-27T06:42:10;98951.38;;;-2.47;96.39
20079;BME280;10199;48.850;8.924;2024-01-27T06:44:39;98738.31;;;-4.06;95.92
20079;BME280;10199;48.850;8.924;2024-01-27T06:47:08;98720.22;;;-3.86;95.46
20079;BME280;10199;48.850;8.924;2024-01-27T06:49:37;98934.84;;;-2.45;95.55
20079;BME280;10199;48.850;8.924;2024-01-27T06:52:05;99013.44;;;-2.26;96.23
20079;BME280;10199;48.850;8.924;2024-01-27T06:54:34;99130.31;;;-1.35;96.09
20079;BME280;10199;48.850;8.924;2024-01-27T06:57:03;98645.94;;;-4.62;95.53
20079;BME280;10199;48.850;8.924;2024-01-27T06:59:31;99009.38;;;-2.72;96.14
20079;BME280;10199;48.850;8.924;2024-01-27T07:02:00;98728.25;;;-4.12;95.96
20079;BME280;10199;48.850;8.924;2024-01-27T07:04:30;98797.13;;;-3.70;96.67
20079;BME280;10199;48.850;8.924;2024-01-27T07:06:59;98856.84;;;-3.56;96.44
20079;BME280;10199;48.850;8.924;2024-01-27T07:09:27;98355.28;;;-6.69;96.62
20079;BME280;10199;48.850;8.924;2024-01-27T07:12:01;98570.06;;;-5.42;96.14
20079;BME280;10199;48.850;8.924;2024-01-27T07:14:30;98642.63;;;-4.23;96.52
20079;BME280;10199;48.850;8.924;2024-01-27T07:16:58;98689.78;;;-3.79;96.42
20079;BME280;10199;48.850;8.924;2024-01-27T07:19:27;98960.91;;;-2.29;95.40
20079;BME280;10199;48.850;8.924;2024-01-27T07:21:58;99185.28;;;-0.89;95.52
20079;BME280;10199;48.850;8.924;2024-01-27T07:24:27;99012.09;;;-1.78;93.98
20079;BME280;10199;48.850;8.924;2024-01-27T07:26:59;98726.53;;;-3.72;93.88
20079;BME280;10199;48.850;8.924;2024-01-27T07:29:31;98890.38;;;-2.17;94.38
20079;BME280;10199;48.850;8.924;2024-01-27T07:31:59;98879.69;;;-1.75;92.28
20079;BME280;10199;48.850;8.924;2024-01-27T07:34:27;98691.34;;;-1.93;88.25
20079;BME280;10199;48.850;8.924;2024-01-27T07:36:59;98705.50;;;-1.33;84.38
20079;BME280;10199;48.850;8.924;2024-01-27T07:39:28;98980.56;;;0.18;82.99
20079;BME280;10199;48.850;8.924;2024-01-27T07:41:58;99020.66;;;0.93;81.49
20079;BME280;10199;48.850;8.924;2024-01-27T07:44:27;98878.53;;;0.13;80.60
20079;BME280;10199;48.850;8.924;2024-01-27T07:46:57;98789.25;;;0.13;79.34
20079;BME280;10199;48.850;8.924;2024-01-27T07:49:26;98833.88;;;0.95;76.14
20079;BME280;10199;48.850;8.924;2024-01-27T07:51:55;99209.09;;;2.87;78.30
20079;BME280;10199;48.850;8.924;2024-01-27T07:54:25;98932.16;;;1.92;76.79
20079;BME280;10199;48.850;8.924;2024-01-27T07:56:53;99024.44;;;3.01;73.99
20079;BME280;10199;48.850;8.924;2024-01-27T07:59:21;98840.78;;;2.46;72.38
20079;BME280;10199;48.850;8.924;2024-01-27T08:01:50;98845.06;;;1.67;73.88
20079;BME280;10199;48.850;8.924;2024-01-27T08:04:18;99126.72;;;3.09;73.39
20079;BME280;10199;48.850;8.924;2024-01-27T08:06:47;98955.44;;;3.03;72.02
20079;BME280;10199;48.850;8.924;2024-01-27T08:09:16;98772.31;;;2.81;71.08
20079;BME280;10199;48.850;8.924;2024-01-27T08:11:46;98884.34;;;2.98;71.36
20079;BME280;10199;48.850;8.924;2024-01-27T08:14:18;99146.13;;;5.11;71.26
20079;BME280;10199;48.850;8.924;2024-01-27T08:16:47;99013.06;;;3.92;70.61
20079;BME280;10199;48.850;8.924;2024-01-27T08:19:15;98397.78;;;0.59;70.75
20079;BME280;10199;48.850;8.924;2024-01-27T08:21:47;99037.94;;;4.10;71.77
20079;BME280;10199;48.850;8.924;2024-01-27T08:24:16;98860.25;;;3.69;69.13
20079;BME280;10199;48.850;8.924;2024-01-27T08:26:44;98885.75;;;4.15;69.33
20079;BME280;10199;48.850;8.924;2024-01-27T08:29:15;99114.13;;;5.78;69.52
20079;BME280;10199;48.850;8.924;2024-01-27T08:31:43;98778.56;;;2.91;69.38
20079;BME280;10199;48.850;8.924;2024-01-27T08:34:12;98955.88;;;3.99;69.90
20079;BME280;10199;48.850;8.924;2024-01-27T08:36:41;98516.13;;;1.08;69.52
20079;BME280;10199;48.850;8.924;2024-01-27T08:39:11;98420.34;;;1.49;68.05
20079;BME280;10199;48.850;8.924;2024-01-27T08:41:40;98742.22;;;4.09;66.40
20079;BME280;10199;48.850;8.924;2024-01-27T08:44:08;98979.19;;;5.23;68.61
20079;BME280;10199;48.850;8.924;2024-01-27T08:46:38;99097.97;;;6.84;66.42
20079;BME280;10199;48.850;8.924;2024-01-27T08:49:06;98555.63;;;3.14;67.37
20079;BME280;10199;48.850;8.924;2024-01-27T08:51:34;99103.19;;;7.18;67.96
20079;BME280;10199;48.850;8.924;2024-01-27T08:54:03;98948.47;;;5.69;67.53
20079;BME280;10199;48.850;8.924;2024-01-27T08:56:31;98742.34;;;5.43;65.59
20079;BME280;10199;48.850;8.924;2024-01-27T08:58:59;98864.06;;;5.07;66.32
20079;BME280;10199;48.850;8.924;2024-01-27T09:01:28;98954.66;;;5.46;66.14
20079;BME280;10199;48.850;8.924;2024-01-27T09:03:59;98952.94;;;5.23;67.25
20079;BME280;10199;48.850;8.924;2024-01-27T09:06:28;98877.59;;;5.36;65.19
20079;BME280;10199;48.850;8.924;2024-01-27T09:08:58;99100.72;;;6.83;66.30
20079;BME280;10199;48.850;8.924;2024-01-27T09:11:28;98675.91;;;3.62;66.97
20079;BME280;10199;48.850;8.924;2024-01-27T09:14:00;98445.81;;;3.03;66.22
20079;BME280;10199;48.850;8.924;2024-01-27T09:16:30;98800.94;;;5.98;65.32
20079;BME280;10199;48.850;8.924;2024-01-27T09:19:00;99124.84;;;8.06;64.86
20079;BME280;10199;48.850;8.924;2024-01-27T09:21:30;98508.03;;;3.79;64.20
20079;BME280;10199;48.850;8.924;2024-01-27T09:23:59;98629.69;;;4.42;63.79
20079;BME280;10199;48.850;8.924;2024-01-27T09:26:30;98725.22;;;4.94;63.51
20079;BME280;10199;48.850;8.924;2024-01-27T09:28:59;98907.31;;;5.48;65.21
20079;BME280;10199;48.850;8.924;2024-01-27T09:31:27;98607.91;;;4.42;64.46
20079;BME280;10199;48.850;8.924;2024-01-27T09:33:58;99199.00;;;7.15;64.20
20079;BME280;10199;48.850;8.924;2024-01-27T09:36:34;98489.13;;;3.30;64.96
20079;BME280;10199;48.850;8.924;2024-01-27T09:39:12;99036.19;;;7.22;64.99
20079;BME280;10199;48.850;8.924;2024-01-27T09:41:42;98519.59;;;5.40;61.39
20079;BME280;10199;48.850;8.924;2024-01-27T09:44:18;98584.41;;;5.17;60.38
20079;BME280;10199;48.850;8.924;2024-01-27T09:46:48;99128.41;;;8.68;62.85
20079;BME280;10199;48.850;8.924;2024-01-27T09:49:22;98878.88;;;7.56;61.18
20079;BME280;10199;48.850;8.924;2024-01-27T09:51:52;99164.22;;;8.28;60.96
20079;BME280;10199;48.850;8.924;2024-01-27T09:54:23;98896.34;;;6.53;60.93
20079;BME280;10199;48.850;8.924;2024-01-27T09:56:52;98777.50;;;6.17;59.85
20079;BME280;10199;48.850;8.924;2024-01-27T09:59:21;99133.13;;;8.43;61.06
20079;BME280;10199;48.850;8.924;2024-01-27T10:01:50;99110.31;;;9.13;58.37
20079;BME280;10199;48.850;8.924;2024-01-27T10:04:22;99155.19;;;8.42;59.10
20079;BME280;10199;48.850;8.924;2024-01-27T10:06:52;98611.84;;;5.56;59.33
20079;BME280;10199;48.850;8.924;2024-01-27T10:09:21;98554.72;;;5.28;58.65
20079;BME280;10199;48.850;8.924;2024-01-27T10:11:50;99048.22;;;7.56;59.53
20079;BME280;10199;48.850;8.924;2024-01-27T10:14:19;98941.53;;;7.62;58.99
20079;BME280;10199;48.850;8.924;2024-01-27T10:16:48;98791.78;;;5.81;61.31
20079;BME280;10199;48.850;8.924;2024-01-27T10:19:17;98882.53;;;4.94;65.01
20079;BME280;10199;48.850;8.924;2024-01-27T10:21:46;98763.72;;;3.54;67.70
20079;BME280;10199;48.850;8.924;2024-01-27T10:24:16;98895.78;;;5.15;67.46
20079;BME280;10199;48.850;8.924;2024-01-27T10:26:45;98593.81;;;2.31;68.39
20079;BME280;10199;48.850;8.924;2024-01-27T10:29:27;99243.22;;;6.19;69.30
20079;BME280;10199;48.850;8.924;2024-01-27T10:32:07;98876.91;;;4.05;68.00
20079;BME280;10199;48.850;8.924;2024-01-27T10:34:37;98841.28;;;4.26;69.52
20079;BME280;10199;48.850;8.924;2024-01-27T10:37:05;98915.75;;;4.83;68.34
20079;BME280;10199;48.850;8.924;2024-01-27T10:39:35;98347.69;;;1.45;68.58
20079;BME280;10199;48.850;8.924;2024-01-27T10:42:05;98438.28;;;1.41;69.65
20079;BME280;10199;48.850;8.924;2024-01-27T10:44:38;98617.22;;;2.07;71.16
20079;BME280;10199;48.850;8.924;2024-01-27T10:47:13;99160.28;;;5.45;71.00
20079;BME280;10199;48.850;8.924;2024-01-27T10:49:46;99103.59;;;5.19;71.13
20079;BME280;10199;48.850;8.924;2024-01-27T10:52:18;98664.25;;;3.18;69.82
20079;BME280;10199;48.850;8.924;2024-01-27T10:54:51;98937.22;;;5.23;70.65
20079;BME280;10199;48.850;8.924;2024-01-27T10:57:21;99130.88;;;6.45;68.41
20079;BME280;10199;48.850;8.924;2024-01-27T10:59:50;98925.25;;;4.48;69.63
20079;BME280;10199;48.850;8.924;2024-01-27T11:02:22;98794.66;;;3.60;69.93
20079;BME280;10199;48.850;8.924;2024-01-27T11:04:51;98966.38;;;4.35;71.40
20079;BME280;10199;48.850;8.924;2024-01-27T11:07:21;98838.53;;;3.56;69.53
20079;BME280;10199;48.850;8.924;2024-01-27T11:09:51;98852.22;;;3.60;69.09
20079;BME280;10199;48.850;8.924;2024-01-27T11:12:21;98670.44;;;4.11;68.94
20079;BME280;10199;48.850;8.924;2024-01-27T11:14:51;98955.97;;;5.05;68.76
20079;BME280;10199;48.850;8.924;2024-01-27T11:17:20;99079.94;;;5.07;70.92
20079;BME280;10199;48.850;8.924;2024-01-27T11:19:49;99088.38;;;5.48;70.00
20079;BME280;10199;48.850;8.924;2024-01-27T11:22:23;98976.13;;;5.40;69.74
20079;BME280;10199;48.850;8.924;2024-01-27T11:25:07;98860.53;;;4.73;68.63
20079;BME280;10199;48.850;8.924;2024-01-27T11:27:36;98672.78;;;3.92;68.43
20079;BME280;10199;48.850;8.924;2024-01-27T11:30:05;98844.63;;;3.80;70.48
20079;BME280;10199;48.850;8.924;2024-01-27T11:32:36;98888.03;;;5.13;68.92
20079;BME280;10199;48.850;8.924;2024-01-27T11:35:05;98983.50;;;4.76;69.62
20079;BME280;10199;48.850;8.924;2024-01-27T11:37:33;98866.31;;;4.54;70.06
20079;BME280;10199;48.850;8.924;2024-01-27T11:40:07;98402.03;;;1.13;69.46
20079;BME280;10199;48.850;8.924;2024-01-27T11:42:36;98473.13;;;2.51;68.10
20079;BME280;10199;48.850;8.924;2024-01-27T11:45:06;98456.63;;;1.90;67.95
20079;BME280;10199;48.850;8.924;2024-01-27T11:47:36;98803.38;;;4.78;68.98
20079;BME280;10199;48.850;8.924;2024-01-27T11:50:04;98818.38;;;4.76;68.10
20079;BME280;10199;48.850;8.924;2024-01-27T11:52:34;98813.41;;;5.06;66.59
20079;BME280;10199;48.850;8.924;2024-01-27T11:55:04;98747.25;;;4.58;66.37
20079;BME280;10199;48.850;8.924;2024-01-27T11:57:34;98803.63;;;5.08;66.60
20079;BME280;10199;48.850;8.924;2024-01-27T12:00:03;98536.00;;;2.48;66.22
20079;BME280;10199;48.850;8.924;2024-01-27T12:02:32;98908.84;;;5.28;65.13
20079;BME280;10199;48.850;8.924;2024-01-27T12:05:01;99137.94;;;5.98;67.39
20079;BME280;10199;48.850;8.924;2024-01-27T12:07:30;98657.19;;;3.91;66.79
20079;BME280;10199;48.850;8.924;2024-01-27T12:09:59;98873.06;;;5.60;64.42
20079;BME280;10199;48.850;8.924;2024-01-27T12:12:27;98861.63;;;5.39;67.26
20079;BME280;10199;48.850;8.924;2024-01-27T12:14:59;98826.97;;;4.89;67.02
20079;BME280;10199;48.850;8.924;2024-01-27T12:17:33;98682.31;;;4.51;66.65
20079;BME280;10199;48.850;8.924;2024-01-27T12:20:01;98964.38;;;6.01;66.53
20079;BME280;10199;48.850;8.924;2024-01-27T12:22:30;98810.03;;;5.94;67.11
20079;BME280;10199;48.850;8.924;2024-01-27T12:25:08;98800.09;;;5.43;66.78
20079;BME280;10199;48.850;8.924;2024-01-27T12:27:38;99062.84;;;6.85;66.15
20079;BME280;10199;48.850;8.924;2024-01-27T12:30:09;98773.75;;;5.88;66.20
20079;BME280;10199;48.850;8.924;2024-01-27T12:32:38;98763.13;;;5.01;65.92
20079;BME280;10199;48.850;8.924;2024-01-27T12:35:07;98325.91;;;1.82;65.30
20079;BME280;10199;48.850;8.924;2024-01-27T12:37:36;98260.97;;;2.83;64.21
20079;BME280;10199;48.850;8.924;2024-01-27T12:40:17;98768.31;;;6.44;65.29
20079;BME280;10199;48.850;8.924;2024-01-27T12:42:47;98830.25;;;5.26;68.24
20079;BME280;10199;48.850;8.924;2024-01-27T12:45:17;98753.56;;;4.89;67.15
20079;BME280;10199;48.850;8.924;2024-01-27T12:47:45;98994.59;;;6.07;65.44
20079;BME280;10199;48.850;8.924;2024-01-27T12:50:14;98931.78;;;6.04;66.40
20079;BME280;10199;48.850;8.924;2024-01-27T12:52:45;98298.00;;;1.96;65.79
20079;BME280;10199;48.850;8.924;2024-01-27T12:55:14;98899.31;;;5.49;66.29
20079;BME280;10199;48.850;8.924;2024-01-27T12:57:43;98504.78;;;3.65;64.67
20079;BME280;10199;48.850;8.924;2024-01-27T13:00:13;98768.97;;;5.27;64.57
20079;BME280;10199;48.850;8.924;2024-01-27T13:02:45;98538.25;;;4.39;62.75
20079;BME280;10199;48.850;8.924;2024-01-27T13:05:14;98993.69;;;7.26;63.96
20079;BME280;10199;48.850;8.924;2024-01-27T13:07:42;99018.75;;;7.42;63.98
20079;BME280;10199;48.850;8.924;2024-01-27T13:10:12;98815.31;;;5.71;62.37
20079;BME280;10199;48.850;8.924;2024-01-27T13:12:41;98372.16;;;2.98;64.19
20079;BME280;10199;48.850;8.924;2024-01-27T13:15:12;98429.63;;;3.78;61.44
20079;BME280;10199;48.850;8.924;2024-01-27T13:17:43;98629.41;;;5.01;62.87